THY9217 LTFM-LICA
Flight info
| Callsign | THY9217 |
|---|---|
| Flight time | 1h 36m |
| Altitude | 36000 |
| Route | BARPE UM603 TSL UM600 KRK UL869 LATAN/N0429F350 DCT GEMVI |
| Aircraft | A20N/M-SDE2E3FGHIRWXY/LB1 |
Departure
| Time | 2026-04-17 10:17 |
|---|---|
| Airport | İstanbul Airport (LTFM) |
Arrival
| Time | 2026-04-17 11:54 |
|---|---|
| Airport | Lamezia Terme Sant'Eufemia International Airport (LICA) |
| Time | Latitude | Longitude | Altitude | Speed | Heading |
|---|---|---|---|---|---|
| 2026-04-17 09:52 | 41.26746 | 28.73443 | 304 ft | 0 kts | 180° |
| 2026-04-17 10:08 | 41.26766 | 28.73443 | 304 ft | 3 kts | 180° |
| 2026-04-17 10:09 | 41.26788 | 28.73443 | 303 ft | 3 kts | 180° |
| 2026-04-17 10:09 | 41.26811 | 28.73443 | 303 ft | 3 kts | 180° |
| 2026-04-17 10:09 | 41.26833 | 28.73443 | 303 ft | 3 kts | 180° |
| 2026-04-17 10:09 | 41.26855 | 28.73442 | 303 ft | 3 kts | 190° |
| 2026-04-17 10:10 | 41.26860 | 28.73431 | 305 ft | 6 kts | 246° |
| 2026-04-17 10:10 | 41.26850 | 28.73401 | 305 ft | 1 kts | 265° |
| 2026-04-17 10:10 | 41.26850 | 28.73400 | 305 ft | 0 kts | 268° |
| 2026-04-17 10:12 | 41.26850 | 28.73398 | 305 ft | 1 kts | 268° |
| 2026-04-17 10:12 | 41.26849 | 28.73375 | 304 ft | 4 kts | 266° |
| 2026-04-17 10:12 | 41.26847 | 28.73328 | 304 ft | 7 kts | 267° |
| 2026-04-17 10:12 | 41.26844 | 28.73254 | 305 ft | 9 kts | 269° |
| 2026-04-17 10:13 | 41.26840 | 28.73159 | 304 ft | 11 kts | 250° |
| 2026-04-17 10:13 | 41.26776 | 28.73101 | 304 ft | 12 kts | 189° |
| 2026-04-17 10:13 | 41.26682 | 28.73098 | 304 ft | 15 kts | 181° |
| 2026-04-17 10:13 | 41.26573 | 28.73096 | 306 ft | 17 kts | 181° |
| 2026-04-17 10:14 | 41.26447 | 28.73091 | 304 ft | 19 kts | 184° |
| 2026-04-17 10:14 | 41.26305 | 28.73077 | 305 ft | 22 kts | 184° |
| 2026-04-17 10:14 | 41.26201 | 28.73012 | 304 ft | 16 kts | 251° |
| 2026-04-17 10:14 | 41.26196 | 28.72897 | 306 ft | 10 kts | 269° |
| 2026-04-17 10:15 | 41.26194 | 28.72789 | 306 ft | 13 kts | 269° |
| 2026-04-17 10:15 | 41.26195 | 28.72660 | 304 ft | 15 kts | 272° |
| 2026-04-17 10:15 | 41.26223 | 28.72530 | 306 ft | 15 kts | 332° |
| 2026-04-17 10:15 | 41.26294 | 28.72522 | 306 ft | 8 kts | 358° |
| 2026-04-17 10:16 | 41.26296 | 28.72522 | 306 ft | 0 kts | 357° |
| 2026-04-17 10:16 | 41.26422 | 28.72516 | 304 ft | 50 kts | 359° |
| 2026-04-17 10:16 | 41.26976 | 28.72511 | 304 ft | 107 kts | 358° |
| 2026-04-17 10:17 | 41.27876 | 28.72491 | 309 ft | 150 kts | 1° |
| 2026-04-17 10:17 | 41.28951 | 28.72435 | 725 ft | 157 kts | 1° |
| 2026-04-17 10:17 | 41.30060 | 28.72388 | 1282 ft | 161 kts | 1° |
| 2026-04-17 10:17 | 41.31169 | 28.72349 | 2049 ft | 156 kts | 4° |
| 2026-04-17 10:18 | 41.32303 | 28.72346 | 2492 ft | 173 kts | 5° |
| 2026-04-17 10:18 | 41.33591 | 28.72353 | 2805 ft | 198 kts | 4° |
| 2026-04-17 10:18 | 41.35061 | 28.72345 | 3184 ft | 223 kts | 3° |
| 2026-04-17 10:18 | 41.36692 | 28.72315 | 3689 ft | 243 kts | 2° |
| 2026-04-17 10:19 | 41.38407 | 28.72270 | 4460 ft | 250 kts | 2° |
| 2026-04-17 10:19 | 41.40158 | 28.72219 | 5337 ft | 253 kts | 2° |
| 2026-04-17 10:19 | 41.41924 | 28.71914 | 6142 ft | 264 kts | 342° |
| 2026-04-17 10:19 | 41.43470 | 28.70553 | 6953 ft | 273 kts | 314° |
| 2026-04-17 10:20 | 41.44407 | 28.68341 | 7773 ft | 280 kts | 286° |
| 2026-04-17 10:20 | 41.44514 | 28.65751 | 8560 ft | 285 kts | 258° |
| 2026-04-17 10:20 | 41.43741 | 28.63326 | 9375 ft | 287 kts | 231° |
| 2026-04-17 10:20 | 41.42247 | 28.61617 | 10239 ft | 284 kts | 205° |
| 2026-04-17 10:21 | 41.40309 | 28.60875 | 10635 ft | 301 kts | 183° |
| 2026-04-17 10:21 | 41.38139 | 28.60745 | 10869 ft | 324 kts | 181° |
| 2026-04-17 10:21 | 41.35825 | 28.60460 | 11173 ft | 342 kts | 188° |
| 2026-04-17 10:21 | 41.33475 | 28.59839 | 11900 ft | 346 kts | 193° |
| 2026-04-17 10:22 | 41.31143 | 28.58997 | 12696 ft | 348 kts | 197° |
| 2026-04-17 10:22 | 41.28821 | 28.58040 | 13460 ft | 351 kts | 198° |
| 2026-04-17 10:22 | 41.26487 | 28.57029 | 14194 ft | 353 kts | 199° |
| 2026-04-17 10:22 | 41.24147 | 28.56004 | 14881 ft | 355 kts | 199° |
| 2026-04-17 10:23 | 41.21789 | 28.54973 | 15574 ft | 358 kts | 200° |
| 2026-04-17 10:23 | 41.19414 | 28.53941 | 16259 ft | 360 kts | 200° |
| 2026-04-17 10:23 | 41.17024 | 28.52907 | 16920 ft | 363 kts | 200° |
| 2026-04-17 10:23 | 41.14606 | 28.51863 | 17558 ft | 366 kts | 200° |
| 2026-04-17 10:24 | 41.12173 | 28.50813 | 18182 ft | 370 kts | 200° |
| 2026-04-17 10:24 | 41.09718 | 28.49755 | 18741 ft | 372 kts | 200° |
| 2026-04-17 10:24 | 41.07241 | 28.48686 | 19277 ft | 375 kts | 200° |
| 2026-04-17 10:24 | 41.04750 | 28.47615 | 19822 ft | 378 kts | 200° |
| 2026-04-17 10:25 | 41.02228 | 28.46532 | 20333 ft | 382 kts | 200° |
| 2026-04-17 10:25 | 40.99692 | 28.45442 | 20859 ft | 385 kts | 200° |
| 2026-04-17 10:25 | 40.97133 | 28.44343 | 21382 ft | 388 kts | 200° |
| 2026-04-17 10:25 | 40.94549 | 28.43235 | 21873 ft | 392 kts | 200° |
| 2026-04-17 10:26 | 40.91980 | 28.42026 | 22384 ft | 393 kts | 207° |
| 2026-04-17 10:26 | 40.89663 | 28.40103 | 22870 ft | 394 kts | 221° |
| 2026-04-17 10:26 | 40.87802 | 28.37462 | 23356 ft | 395 kts | 236° |
| 2026-04-17 10:26 | 40.86508 | 28.34249 | 23769 ft | 398 kts | 250° |
| 2026-04-17 10:27 | 40.85834 | 28.30695 | 24189 ft | 400 kts | 258° |
| 2026-04-17 10:27 | 40.85312 | 28.27119 | 24617 ft | 403 kts | 258° |
| 2026-04-17 10:27 | 40.84770 | 28.23431 | 25029 ft | 405 kts | 258° |
| 2026-04-17 10:27 | 40.84412 | 28.21011 | 25279 ft | 407 kts | 258° |
| 2026-04-17 10:28 | 40.83863 | 28.17333 | 25695 ft | 409 kts | 258° |
| 2026-04-17 10:28 | 40.83308 | 28.13641 | 26077 ft | 412 kts | 258° |
| 2026-04-17 10:28 | 40.82747 | 28.09929 | 26455 ft | 414 kts | 258° |
| 2026-04-17 10:28 | 40.82181 | 28.06185 | 26824 ft | 416 kts | 258° |
| 2026-04-17 10:29 | 40.81611 | 28.02431 | 27193 ft | 419 kts | 258° |
| 2026-04-17 10:29 | 40.81036 | 27.98655 | 27538 ft | 421 kts | 258° |
| 2026-04-17 10:29 | 40.80456 | 27.94848 | 27881 ft | 424 kts | 258° |
| 2026-04-17 10:29 | 40.79873 | 27.91019 | 28203 ft | 426 kts | 259° |
| 2026-04-17 10:30 | 40.79495 | 27.87129 | 28527 ft | 429 kts | 265° |
| 2026-04-17 10:30 | 40.79450 | 27.83183 | 28839 ft | 431 kts | 270° |
| 2026-04-17 10:30 | 40.79505 | 27.79214 | 29143 ft | 434 kts | 270° |
| 2026-04-17 10:30 | 40.79550 | 27.75229 | 29446 ft | 436 kts | 270° |
| 2026-04-17 10:31 | 40.79589 | 27.71214 | 29744 ft | 438 kts | 270° |
| 2026-04-17 10:31 | 40.79626 | 27.67201 | 30054 ft | 439 kts | 270° |
| 2026-04-17 10:31 | 40.79695 | 27.63154 | 30334 ft | 441 kts | 273° |
| 2026-04-17 10:31 | 40.80049 | 27.59127 | 30601 ft | 443 kts | 279° |
| 2026-04-17 10:32 | 40.80737 | 27.55159 | 30875 ft | 445 kts | 284° |
| 2026-04-17 10:32 | 40.81581 | 27.51219 | 31175 ft | 446 kts | 284° |
| 2026-04-17 10:32 | 40.82412 | 27.47273 | 31512 ft | 445 kts | 284° |
| 2026-04-17 10:32 | 40.83233 | 27.43338 | 31870 ft | 444 kts | 284° |
| 2026-04-17 10:33 | 40.84051 | 27.39404 | 32237 ft | 443 kts | 283° |
| 2026-04-17 10:33 | 40.84854 | 27.35539 | 32569 ft | 442 kts | 283° |
| 2026-04-17 10:33 | 40.85665 | 27.31629 | 32905 ft | 441 kts | 283° |
| 2026-04-17 10:33 | 40.86476 | 27.27713 | 33198 ft | 441 kts | 283° |
| 2026-04-17 10:34 | 40.87282 | 27.23811 | 33521 ft | 440 kts | 283° |
| 2026-04-17 10:34 | 40.88087 | 27.19914 | 33836 ft | 439 kts | 283° |
| 2026-04-17 10:34 | 40.88888 | 27.16022 | 34109 ft | 439 kts | 283° |
| 2026-04-17 10:34 | 40.89687 | 27.12135 | 34366 ft | 438 kts | 283° |
| 2026-04-17 10:35 | 40.90484 | 27.08250 | 34615 ft | 437 kts | 283° |
| 2026-04-17 10:35 | 40.91277 | 27.04366 | 34845 ft | 437 kts | 282° |
| 2026-04-17 10:35 | 40.91894 | 27.00443 | 35067 ft | 435 kts | 277° |
| 2026-04-17 10:35 | 40.92225 | 26.96479 | 35276 ft | 433 kts | 272° |
| 2026-04-17 10:36 | 40.92276 | 26.92500 | 35491 ft | 432 kts | 266° |
| 2026-04-17 10:36 | 40.92074 | 26.88547 | 35680 ft | 431 kts | 264° |
| 2026-04-17 10:36 | 40.91839 | 26.84596 | 35871 ft | 431 kts | 264° |
| 2026-04-17 10:36 | 40.91613 | 26.80648 | 35985 ft | 431 kts | 264° |
| 2026-04-17 10:37 | 40.91386 | 26.76702 | 35993 ft | 430 kts | 264° |
| 2026-04-17 10:37 | 40.90925 | 26.68835 | 35992 ft | 429 kts | 264° |
| 2026-04-17 10:38 | 40.90454 | 26.60966 | 35996 ft | 430 kts | 264° |
| 2026-04-17 10:38 | 40.89977 | 26.53099 | 35999 ft | 429 kts | 264° |
| 2026-04-17 10:39 | 40.89494 | 26.45222 | 35994 ft | 429 kts | 264° |
| 2026-04-17 10:39 | 40.89006 | 26.37365 | 35985 ft | 429 kts | 264° |
| 2026-04-17 10:40 | 40.88517 | 26.29557 | 35995 ft | 429 kts | 264° |
| 2026-04-17 10:40 | 40.87987 | 26.21712 | 35975 ft | 429 kts | 262° |
| 2026-04-17 10:41 | 40.87210 | 26.13900 | 35966 ft | 428 kts | 261° |
| 2026-04-17 10:41 | 40.86420 | 26.06110 | 35963 ft | 427 kts | 261° |
| 2026-04-17 10:42 | 40.85653 | 25.98313 | 35961 ft | 428 kts | 261° |
| 2026-04-17 10:42 | 40.84825 | 25.90514 | 35967 ft | 429 kts | 259° |
| 2026-04-17 10:43 | 40.83852 | 25.82730 | 35976 ft | 429 kts | 259° |
| 2026-04-17 10:43 | 40.82885 | 25.74943 | 35979 ft | 431 kts | 259° |
| 2026-04-17 10:44 | 40.81926 | 25.67131 | 35968 ft | 431 kts | 259° |
| 2026-04-17 10:44 | 40.80962 | 25.59300 | 35973 ft | 432 kts | 259° |
| 2026-04-17 10:45 | 40.79995 | 25.51481 | 35974 ft | 432 kts | 259° |
| 2026-04-17 10:45 | 40.79019 | 25.43646 | 35976 ft | 432 kts | 259° |
| 2026-04-17 10:46 | 40.78037 | 25.35815 | 35982 ft | 433 kts | 259° |
| 2026-04-17 10:46 | 40.77049 | 25.27984 | 35974 ft | 433 kts | 259° |
| 2026-04-17 10:47 | 40.76054 | 25.20139 | 35973 ft | 433 kts | 259° |
| 2026-04-17 10:47 | 40.75055 | 25.12310 | 35982 ft | 433 kts | 259° |
| 2026-04-17 10:48 | 40.74050 | 25.04473 | 35977 ft | 433 kts | 259° |
| 2026-04-17 10:48 | 40.73038 | 24.96638 | 35979 ft | 433 kts | 259° |
| 2026-04-17 10:49 | 40.72027 | 24.88859 | 35977 ft | 433 kts | 259° |
| 2026-04-17 10:49 | 40.71004 | 24.81025 | 35977 ft | 433 kts | 258° |
| 2026-04-17 10:50 | 40.69977 | 24.73203 | 35974 ft | 433 kts | 258° |
| 2026-04-17 10:50 | 40.68945 | 24.65379 | 35974 ft | 434 kts | 258° |
| 2026-04-17 10:51 | 40.67906 | 24.57541 | 35974 ft | 434 kts | 258° |
| 2026-04-17 10:51 | 40.66862 | 24.49710 | 35975 ft | 434 kts | 258° |
| 2026-04-17 10:52 | 40.65811 | 24.41871 | 35978 ft | 434 kts | 258° |
| 2026-04-17 10:52 | 40.64757 | 24.34046 | 35980 ft | 434 kts | 258° |
| 2026-04-17 10:53 | 40.63697 | 24.26223 | 35980 ft | 434 kts | 258° |
| 2026-04-17 10:53 | 40.62633 | 24.18391 | 35985 ft | 434 kts | 258° |
| 2026-04-17 10:54 | 40.61564 | 24.10565 | 35978 ft | 435 kts | 258° |
| 2026-04-17 10:54 | 40.60488 | 24.02723 | 35975 ft | 435 kts | 258° |
| 2026-04-17 10:55 | 40.59404 | 23.94876 | 35975 ft | 436 kts | 258° |
| 2026-04-17 10:55 | 40.58312 | 23.87025 | 35979 ft | 436 kts | 258° |
| 2026-04-17 10:56 | 40.57214 | 23.79175 | 35978 ft | 437 kts | 258° |
| 2026-04-17 10:56 | 40.56107 | 23.71302 | 35985 ft | 438 kts | 258° |
| 2026-04-17 10:57 | 40.54994 | 23.63427 | 35982 ft | 438 kts | 258° |
| 2026-04-17 10:57 | 40.53882 | 23.55595 | 35984 ft | 439 kts | 257° |
| 2026-04-17 10:58 | 40.52755 | 23.47701 | 35983 ft | 439 kts | 257° |
| 2026-04-17 10:58 | 40.51622 | 23.39809 | 35987 ft | 440 kts | 257° |
| 2026-04-17 10:59 | 40.50482 | 23.31916 | 35978 ft | 439 kts | 257° |
| 2026-04-17 10:59 | 40.49341 | 23.24059 | 35987 ft | 438 kts | 257° |
| 2026-04-17 11:00 | 40.48195 | 23.16203 | 35988 ft | 439 kts | 257° |
| 2026-04-17 11:00 | 40.47040 | 23.08325 | 35993 ft | 439 kts | 257° |
| 2026-04-17 11:01 | 40.45783 | 23.00475 | 35995 ft | 438 kts | 252° |
| 2026-04-17 11:01 | 40.43644 | 22.93003 | 35994 ft | 437 kts | 244° |
| 2026-04-17 11:02 | 40.41178 | 22.85702 | 35971 ft | 437 kts | 244° |
| 2026-04-17 11:02 | 40.38724 | 22.78396 | 35971 ft | 438 kts | 244° |
| 2026-04-17 11:03 | 40.36261 | 22.71092 | 35969 ft | 438 kts | 244° |
| 2026-04-17 11:03 | 40.33792 | 22.63794 | 35972 ft | 438 kts | 244° |
| 2026-04-17 11:04 | 40.31312 | 22.56499 | 35964 ft | 438 kts | 244° |
| 2026-04-17 11:04 | 40.28808 | 22.49220 | 35978 ft | 438 kts | 244° |
| 2026-04-17 11:05 | 40.26341 | 22.41911 | 35979 ft | 439 kts | 244° |
| 2026-04-17 11:05 | 40.23889 | 22.34608 | 35980 ft | 438 kts | 244° |
| 2026-04-17 11:06 | 40.21426 | 22.27311 | 35973 ft | 438 kts | 243° |
| 2026-04-17 11:06 | 40.18960 | 22.20028 | 35970 ft | 437 kts | 243° |
| 2026-04-17 11:07 | 40.16507 | 22.12806 | 35975 ft | 437 kts | 243° |
| 2026-04-17 11:07 | 40.14031 | 22.05537 | 35976 ft | 438 kts | 243° |
| 2026-04-17 11:08 | 40.11549 | 21.98270 | 35984 ft | 438 kts | 243° |
| 2026-04-17 11:08 | 40.09002 | 21.91046 | 35981 ft | 438 kts | 242° |
| 2026-04-17 11:09 | 40.06436 | 21.83832 | 35975 ft | 438 kts | 242° |
| 2026-04-17 11:09 | 40.03875 | 21.76622 | 35972 ft | 438 kts | 242° |
| 2026-04-17 11:10 | 40.00025 | 21.65806 | 35960 ft | 439 kts | 242° |
| 2026-04-17 11:10 | 39.97445 | 21.58579 | 35956 ft | 439 kts | 242° |
| 2026-04-17 11:11 | 39.94863 | 21.51351 | 35965 ft | 443 kts | 242° |
| 2026-04-17 11:11 | 39.92245 | 21.43978 | 35963 ft | 452 kts | 243° |
| 2026-04-17 11:12 | 39.89577 | 21.36483 | 35964 ft | 459 kts | 243° |
| 2026-04-17 11:12 | 39.87332 | 21.30194 | 35960 ft | 461 kts | 243° |
| 2026-04-17 11:13 | 39.84625 | 21.22633 | 35957 ft | 461 kts | 242° |
| 2026-04-17 11:13 | 39.81914 | 21.15078 | 35949 ft | 461 kts | 242° |
| 2026-04-17 11:14 | 39.79192 | 21.07518 | 35944 ft | 462 kts | 242° |
| 2026-04-17 11:14 | 39.76464 | 20.99958 | 35938 ft | 462 kts | 242° |
| 2026-04-17 11:15 | 39.73728 | 20.92400 | 35939 ft | 463 kts | 242° |
| 2026-04-17 11:15 | 39.70985 | 20.84835 | 35942 ft | 464 kts | 242° |
| 2026-04-17 11:16 | 39.68288 | 20.77230 | 35939 ft | 464 kts | 244° |
| 2026-04-17 11:16 | 39.65717 | 20.69540 | 35937 ft | 465 kts | 244° |
| 2026-04-17 11:17 | 39.63126 | 20.61854 | 35929 ft | 465 kts | 244° |
| 2026-04-17 11:17 | 39.60519 | 20.54189 | 35911 ft | 465 kts | 244° |
| 2026-04-17 11:18 | 39.57899 | 20.46522 | 35897 ft | 465 kts | 244° |
| 2026-04-17 11:18 | 39.55273 | 20.38858 | 35888 ft | 465 kts | 244° |
| 2026-04-17 11:19 | 39.52668 | 20.31269 | 35887 ft | 452 kts | 244° |
| 2026-04-17 11:19 | 39.51424 | 20.27650 | 35886 ft | 440 kts | 244° |
| 2026-04-17 11:19 | 39.50186 | 20.24052 | 35884 ft | 424 kts | 244° |
| 2026-04-17 11:20 | 39.49007 | 20.20632 | 35883 ft | 407 kts | 244° |
| 2026-04-17 11:20 | 39.47873 | 20.17344 | 35886 ft | 396 kts | 244° |
| 2026-04-17 11:20 | 39.45612 | 20.10823 | 35888 ft | 404 kts | 244° |
| 2026-04-17 11:21 | 39.43891 | 20.03845 | 35885 ft | 410 kts | 258° |
| 2026-04-17 11:21 | 39.42929 | 19.96594 | 35888 ft | 409 kts | 258° |
| 2026-04-17 11:22 | 39.41934 | 19.89340 | 35887 ft | 410 kts | 258° |
| 2026-04-17 11:22 | 39.40932 | 19.82079 | 35889 ft | 410 kts | 258° |
| 2026-04-17 11:23 | 39.39926 | 19.74818 | 35893 ft | 410 kts | 258° |
| 2026-04-17 11:23 | 39.38928 | 19.67563 | 35892 ft | 406 kts | 258° |
| 2026-04-17 11:24 | 39.37952 | 19.60417 | 35901 ft | 404 kts | 257° |
| 2026-04-17 11:24 | 39.36947 | 19.53252 | 35904 ft | 405 kts | 257° |
| 2026-04-17 11:25 | 39.35936 | 19.46088 | 35909 ft | 405 kts | 257° |
| 2026-04-17 11:25 | 39.34923 | 19.38932 | 35911 ft | 405 kts | 257° |
| 2026-04-17 11:26 | 39.33905 | 19.31773 | 35917 ft | 405 kts | 257° |
| 2026-04-17 11:26 | 39.32884 | 19.24618 | 35921 ft | 405 kts | 257° |
| 2026-04-17 11:27 | 39.31857 | 19.17462 | 35930 ft | 405 kts | 257° |
| 2026-04-17 11:27 | 39.30824 | 19.10299 | 35931 ft | 406 kts | 258° |
| 2026-04-17 11:28 | 39.29786 | 19.03130 | 35937 ft | 406 kts | 258° |
| 2026-04-17 11:28 | 39.28742 | 18.95953 | 35941 ft | 408 kts | 258° |
| 2026-04-17 11:29 | 39.27689 | 18.88761 | 35942 ft | 408 kts | 258° |
| 2026-04-17 11:29 | 39.26637 | 18.81607 | 35945 ft | 409 kts | 258° |
| 2026-04-17 11:30 | 39.25572 | 18.74387 | 35945 ft | 409 kts | 258° |
| 2026-04-17 11:30 | 39.24503 | 18.67180 | 35946 ft | 410 kts | 258° |
| 2026-04-17 11:31 | 39.23427 | 18.59953 | 35951 ft | 410 kts | 258° |
| 2026-04-17 11:31 | 39.22345 | 18.52725 | 35953 ft | 410 kts | 258° |
| 2026-04-17 11:32 | 39.21261 | 18.45510 | 35953 ft | 411 kts | 258° |
| 2026-04-17 11:32 | 39.20167 | 18.38304 | 35953 ft | 406 kts | 259° |
| 2026-04-17 11:33 | 39.19081 | 18.31139 | 35961 ft | 409 kts | 259° |
| 2026-04-17 11:33 | 39.17988 | 18.23958 | 35958 ft | 407 kts | 258° |
| 2026-04-17 11:34 | 39.16893 | 18.16799 | 35963 ft | 408 kts | 258° |
| 2026-04-17 11:34 | 39.15793 | 18.09636 | 35939 ft | 406 kts | 258° |
| 2026-04-17 11:35 | 39.15244 | 18.06072 | 35648 ft | 406 kts | 258° |
| 2026-04-17 11:35 | 39.14691 | 18.02491 | 35050 ft | 409 kts | 258° |
| 2026-04-17 11:35 | 39.14141 | 17.98930 | 34349 ft | 414 kts | 258° |
| 2026-04-17 11:35 | 39.13573 | 17.95259 | 33486 ft | 420 kts | 258° |
| 2026-04-17 11:36 | 39.12996 | 17.91545 | 32560 ft | 427 kts | 258° |
| 2026-04-17 11:36 | 39.12406 | 17.87763 | 31625 ft | 434 kts | 258° |
| 2026-04-17 11:36 | 39.11806 | 17.83923 | 30663 ft | 441 kts | 258° |
| 2026-04-17 11:36 | 39.11196 | 17.80022 | 29611 ft | 448 kts | 258° |
| 2026-04-17 11:37 | 39.10571 | 17.76055 | 28401 ft | 456 kts | 258° |
| 2026-04-17 11:37 | 39.09930 | 17.72021 | 27323 ft | 462 kts | 258° |
| 2026-04-17 11:37 | 39.09286 | 17.67986 | 26593 ft | 459 kts | 259° |
| 2026-04-17 11:37 | 39.08647 | 17.63997 | 25676 ft | 452 kts | 259° |
| 2026-04-17 11:38 | 39.08014 | 17.60044 | 24691 ft | 448 kts | 259° |
| 2026-04-17 11:38 | 39.07386 | 17.56134 | 23768 ft | 445 kts | 259° |
| 2026-04-17 11:38 | 39.06762 | 17.52256 | 22795 ft | 439 kts | 259° |
| 2026-04-17 11:38 | 39.06149 | 17.48443 | 21905 ft | 432 kts | 259° |
| 2026-04-17 11:39 | 39.05544 | 17.44695 | 21011 ft | 425 kts | 259° |
| 2026-04-17 11:39 | 39.04945 | 17.40990 | 20128 ft | 420 kts | 259° |
| 2026-04-17 11:39 | 39.04354 | 17.37346 | 19268 ft | 414 kts | 259° |
| 2026-04-17 11:39 | 39.03768 | 17.33736 | 18445 ft | 409 kts | 259° |
| 2026-04-17 11:40 | 39.03189 | 17.30181 | 17514 ft | 404 kts | 259° |
| 2026-04-17 11:40 | 39.02615 | 17.26667 | 16621 ft | 398 kts | 260° |
| 2026-04-17 11:40 | 39.02048 | 17.23207 | 15743 ft | 393 kts | 260° |
| 2026-04-17 11:40 | 39.01495 | 17.19833 | 14905 ft | 388 kts | 260° |
| 2026-04-17 11:41 | 39.00941 | 17.16452 | 14111 ft | 384 kts | 261° |
| 2026-04-17 11:41 | 39.00392 | 17.13118 | 13288 ft | 379 kts | 261° |
| 2026-04-17 11:41 | 38.99843 | 17.09828 | 12449 ft | 374 kts | 258° |
| 2026-04-17 11:41 | 38.99062 | 17.06651 | 11630 ft | 372 kts | 250° |
| 2026-04-17 11:42 | 38.98052 | 17.03651 | 11234 ft | 356 kts | 249° |
| 2026-04-17 11:42 | 38.97100 | 17.00810 | 11036 ft | 336 kts | 249° |
| 2026-04-17 11:42 | 38.96208 | 16.98124 | 10850 ft | 318 kts | 249° |
| 2026-04-17 11:42 | 38.95367 | 16.95589 | 10692 ft | 300 kts | 250° |
| 2026-04-17 11:43 | 38.94563 | 16.93164 | 10313 ft | 292 kts | 250° |
| 2026-04-17 11:43 | 38.93772 | 16.90776 | 9826 ft | 289 kts | 250° |
| 2026-04-17 11:43 | 38.92987 | 16.88413 | 9274 ft | 287 kts | 250° |
| 2026-04-17 11:43 | 38.92205 | 16.86059 | 8690 ft | 286 kts | 250° |
| 2026-04-17 11:44 | 38.91428 | 16.83733 | 8227 ft | 282 kts | 250° |
| 2026-04-17 11:44 | 38.90654 | 16.81421 | 7645 ft | 282 kts | 250° |
| 2026-04-17 11:44 | 38.89883 | 16.79111 | 7115 ft | 281 kts | 250° |
| 2026-04-17 11:44 | 38.89114 | 16.76814 | 6613 ft | 279 kts | 250° |
| 2026-04-17 11:45 | 38.88346 | 16.74531 | 6116 ft | 278 kts | 250° |
| 2026-04-17 11:45 | 38.87587 | 16.72263 | 5669 ft | 274 kts | 250° |
| 2026-04-17 11:45 | 38.86845 | 16.70040 | 5269 ft | 269 kts | 250° |
| 2026-04-17 11:45 | 38.86107 | 16.67835 | 4744 ft | 268 kts | 250° |
| 2026-04-17 11:46 | 38.85377 | 16.65657 | 4342 ft | 263 kts | 250° |
| 2026-04-17 11:46 | 38.84780 | 16.63455 | 3901 ft | 257 kts | 260° |
| 2026-04-17 11:46 | 38.84549 | 16.61278 | 3748 ft | 239 kts | 271° |
| 2026-04-17 11:46 | 38.84603 | 16.59219 | 3571 ft | 222 kts | 279° |
| 2026-04-17 11:47 | 38.84813 | 16.57330 | 3447 ft | 206 kts | 283° |
| 2026-04-17 11:47 | 38.85094 | 16.55564 | 3198 ft | 199 kts | 284° |
| 2026-04-17 11:47 | 38.85395 | 16.53878 | 2965 ft | 195 kts | 284° |
| 2026-04-17 11:47 | 38.85715 | 16.52204 | 2893 ft | 194 kts | 289° |
| 2026-04-17 11:48 | 38.86310 | 16.50632 | 2893 ft | 199 kts | 306° |
| 2026-04-17 11:48 | 38.87171 | 16.49215 | 2902 ft | 195 kts | 307° |
| 2026-04-17 11:48 | 38.87766 | 16.47793 | 2866 ft | 176 kts | 287° |
| 2026-04-17 11:48 | 38.87997 | 16.46324 | 2763 ft | 161 kts | 278° |
| 2026-04-17 11:49 | 38.88127 | 16.44957 | 2644 ft | 150 kts | 278° |
| 2026-04-17 11:49 | 38.88269 | 16.43698 | 2541 ft | 137 kts | 279° |
| 2026-04-17 11:49 | 38.88418 | 16.42445 | 2500 ft | 145 kts | 278° |
| 2026-04-17 11:49 | 38.88561 | 16.41221 | 2363 ft | 133 kts | 277° |
| 2026-04-17 11:50 | 38.88691 | 16.40074 | 2195 ft | 126 kts | 277° |
| 2026-04-17 11:50 | 38.88820 | 16.38968 | 2043 ft | 125 kts | 276° |
| 2026-04-17 11:50 | 38.88951 | 16.37851 | 1873 ft | 129 kts | 276° |
| 2026-04-17 11:50 | 38.89083 | 16.36711 | 1698 ft | 129 kts | 275° |
| 2026-04-17 11:51 | 38.89216 | 16.35577 | 1519 ft | 130 kts | 276° |
| 2026-04-17 11:51 | 38.89348 | 16.34430 | 1352 ft | 128 kts | 276° |
| 2026-04-17 11:51 | 38.89478 | 16.33327 | 1195 ft | 125 kts | 276° |
| 2026-04-17 11:51 | 38.89609 | 16.32195 | 1032 ft | 130 kts | 277° |
| 2026-04-17 11:52 | 38.89741 | 16.31075 | 874 ft | 124 kts | 276° |
| 2026-04-17 11:52 | 38.89869 | 16.30009 | 736 ft | 122 kts | 277° |
| 2026-04-17 11:52 | 38.89997 | 16.28883 | 580 ft | 129 kts | 278° |
| 2026-04-17 11:52 | 38.90125 | 16.27729 | 358 ft | 132 kts | 277° |
| 2026-04-17 11:53 | 38.90264 | 16.26594 | 153 ft | 126 kts | 276° |
| 2026-04-17 11:53 | 38.90382 | 16.25540 | 47 ft | 112 kts | 278° |
| 2026-04-17 11:53 | 38.90478 | 16.24715 | 42 ft | 78 kts | 278° |
| 2026-04-17 11:53 | 38.90554 | 16.24083 | 35 ft | 66 kts | 278° |
| 2026-04-17 11:54 | 38.90607 | 16.23746 | 34 ft | 25 kts | 292° |
| 2026-04-17 11:54 | 38.90693 | 16.23559 | 34 ft | 25 kts | 308° |
| 2026-04-17 11:54 | 38.90788 | 16.23482 | 33 ft | 16 kts | 4° |
| 2026-04-17 11:54 | 38.90841 | 16.23590 | 33 ft | 16 kts | 94° |
| 2026-04-17 11:55 | 38.90824 | 16.23742 | 32 ft | 18 kts | 98° |
| 2026-04-17 11:55 | 38.90805 | 16.23912 | 35 ft | 20 kts | 98° |
| 2026-04-17 11:55 | 38.90783 | 16.24097 | 37 ft | 22 kts | 96° |
| 2026-04-17 11:55 | 38.90827 | 16.24264 | 38 ft | 17 kts | 83° |
| 2026-04-17 11:56 | 38.90812 | 16.24423 | 39 ft | 19 kts | 98° |
| 2026-04-17 11:56 | 38.90819 | 16.24539 | 39 ft | 9 kts | 27° |
| 2026-04-17 11:56 | 38.90870 | 16.24548 | 40 ft | 0 kts | 9° |